Time;durP1;ratioP1;P1;durP2;ratioP2;P2;SDS_P1;SDS_P2;PMS_P1;PMS_P2;Temp;Humidity;BMP_temperature;BMP_pressure;BME280_temperature;BME280_humidity;BME280_pressure;Samples;Min_cycle;Max_cycle;Signal;HPM_P1;HPM_P2
2022/12/11 00:02:12;;;;;;;23.77;12.07;;;5.60;55.70;;;;;;4911774;29;20447;-86
2022/12/11 00:04:39;;;;;;;24.23;13.77;;;5.70;55.50;;;;;;4915807;29;20830;-85
2022/12/11 00:07:06;;;;;;;37.57;15.50;;;5.70;55.00;;;;;;4882826;29;20478;-86
2022/12/11 00:09:33;;;;;;;27.03;13.80;;;5.70;54.90;;;;;;4889306;29;20464;-86
2022/12/11 00:12:01;;;;;;;31.90;14.90;;;5.60;55.30;;;;;;4886744;29;20464;-86
2022/12/11 00:14:28;;;;;;;24.07;11.57;;;5.60;55.40;;;;;;4877774;29;20978;-87
2022/12/11 00:16:56;;;;;;;25.37;13.77;;;5.60;55.30;;;;;;4904122;29;20661;-86
2022/12/11 00:19:23;;;;;;;21.63;12.27;;;5.50;55.30;;;;;;4914759;29;20443;-86
2022/12/11 00:21:50;;;;;;;24.30;11.70;;;5.60;55.40;;;;;;4907556;29;20466;-86
2022/12/11 00:24:17;;;;;;;21.13;11.37;;;5.60;55.10;;;;;;4906827;29;20518;-85
2022/12/11 00:26:44;;;;;;;27.80;14.30;;;5.70;55.00;;;;;;4898905;29;20486;-86
2022/12/11 00:29:13;;;;;;;26.10;13.83;;;5.60;54.80;;;;;;4907684;29;20546;-85
2022/12/11 00:31:40;;;;;;;24.80;11.30;;;5.50;54.60;;;;;;4883131;29;20451;-86
2022/12/11 00:34:10;;;;;;;22.67;12.23;;;5.50;54.90;;;;;;4898152;29;20484;-86
2022/12/11 00:36:38;;;;;;;25.37;12.20;;;5.30;54.90;;;;;;4871231;29;20448;-86
2022/12/11 00:39:06;;;;;;;24.47;11.30;;;5.20;54.80;;;;;;4891956;29;20463;-86
2022/12/11 00:41:33;;;;;;;19.20;10.97;;;5.20;55.40;;;;;;4876786;29;20463;-86
2022/12/11 00:44:00;;;;;;;27.53;13.47;;;5.30;55.60;;;;;;4930388;28;20914;-86
2022/12/11 00:46:27;;;;;;;17.30;11.17;;;5.30;55.10;;;;;;4884981;29;20463;-85
2022/12/11 00:48:54;;;;;;;22.27;11.60;;;5.10;55.50;;;;;;4900301;29;20459;-87
2022/12/11 00:51:23;;;;;;;22.50;11.67;;;5.20;55.30;;;;;;4879356;29;20473;-86
2022/12/11 00:53:50;;;;;;;24.10;13.53;;;5.10;55.10;;;;;;4877002;29;20477;-86
2022/12/11 00:56:20;;;;;;;27.17;14.43;;;5.00;55.50;;;;;;4876922;29;20465;-86
2022/12/11 00:58:48;;;;;;;28.43;13.67;;;4.90;55.70;;;;;;4890519;29;20477;-85
2022/12/11 01:01:17;;;;;;;32.13;14.10;;;5.00;56.00;;;;;;4882434;29;20440;-87
2022/12/11 01:03:44;;;;;;;31.33;14.20;;;5.10;55.90;;;;;;4930266;29;20554;-86
2022/12/11 01:06:15;;;;;;;28.20;14.53;;;5.20;56.00;;;;;;4884844;29;20451;-86
2022/12/11 01:08:44;;;;;;;25.70;13.13;;;5.40;56.00;;;;;;4901806;29;20495;-86
2022/12/11 01:11:13;;;;;;;31.53;14.97;;;5.40;55.60;;;;;;4885449;29;20453;-87
2022/12/11 01:13:41;;;;;;;25.83;14.00;;;5.50;55.60;;;;;;4917589;29;20480;-86
2022/12/11 01:16:11;;;;;;;34.80;15.70;;;5.60;55.10;;;;;;4914215;29;20823;-86
2022/12/11 01:18:38;;;;;;;35.07;16.47;;;5.70;54.80;;;;;;4905865;29;20473;-86
2022/12/11 01:21:07;;;;;;;33.47;16.80;;;5.70;54.70;;;;;;4929263;28;20735;-85
2022/12/11 01:23:34;;;;;;;32.20;15.07;;;5.70;54.70;;;;;;4889848;29;20488;-86
2022/12/11 01:26:07;;;;;;;33.13;15.50;;;5.50;54.70;;;;;;4907619;29;20467;-86
2022/12/11 01:28:34;;;;;;;26.30;13.43;;;5.20;55.40;;;;;;4930047;29;20839;-85
2022/12/11 01:31:02;;;;;;;26.13;13.50;;;5.40;55.50;;;;;;4914149;29;20471;-86
2022/12/11 01:33:29;;;;;;;25.20;14.87;;;5.40;54.80;;;;;;4913468;29;20510;-86
2022/12/11 01:35:56;;;;;;;26.47;14.23;;;5.40;54.90;;;;;;4900985;29;20822;-86
2022/12/11 01:38:23;;;;;;;30.60;13.53;;;5.50;55.10;;;;;;4885920;29;20511;-86
2022/12/11 01:40:51;;;;;;;23.50;13.90;;;5.60;54.80;;;;;;4898590;29;21000;-85
2022/12/11 01:43:19;;;;;;;24.90;12.83;;;5.30;54.60;;;;;;4905966;29;20581;-85
2022/12/11 01:45:48;;;;;;;23.97;12.10;;;5.40;55.10;;;;;;4920850;29;20674;-86
2022/12/11 01:48:19;;;;;;;22.10;13.50;;;5.40;54.90;;;;;;4891527;29;20625;-86
2022/12/11 01:50:49;;;;;;;23.57;12.53;;;5.40;55.10;;;;;;4896946;29;20467;-85
2022/12/11 01:53:20;;;;;;;24.20;11.93;;;5.50;55.00;;;;;;4906219;29;20990;-86
2022/12/11 01:55:50;;;;;;;31.30;13.37;;;5.20;54.70;;;;;;4903676;29;20468;-86
2022/12/11 01:58:19;;;;;;;21.63;11.97;;;5.30;55.10;;;;;;4866408;29;22753;-86
2022/12/11 02:00:47;;;;;;;35.87;17.13;;;5.30;55.00;;;;;;4889883;29;20450;-85
2022/12/11 02:03:14;;;;;;;64.77;24.83;;;5.50;54.60;;;;;;4913964;29;20490;-85
2022/12/11 02:05:41;;;;;;;35.33;17.57;;;5.40;54.20;;;;;;4885212;29;20797;-86
2022/12/11 02:08:08;;;;;;;39.20;17.67;;;5.50;54.40;;;;;;4888897;29;20476;-86
2022/12/11 02:11:01;;;;;;;31.63;15.50;;;5.50;54.60;;;;;;4871575;29;20470;-87
2022/12/11 02:13:37;;;;;;;30.43;14.70;;;5.40;53.70;;;;;;4906822;29;20484;-85
2022/12/11 02:16:13;;;;;;;24.03;12.90;;;5.30;54.20;;;;;;4890536;29;20479;-86
2022/12/11 02:18:47;;;;;;;21.93;12.40;;;5.20;54.30;;;;;;4915476;29;20557;-86
2022/12/11 02:21:22;;;;;;;22.50;13.33;;;4.90;54.80;;;;;;4927041;29;20534;-86
2022/12/11 02:24:04;;;;;;;23.00;11.80;;;4.90;54.90;;;;;;4885542;29;21827;-85
2022/12/11 02:26:47;;;;;;;27.70;12.80;;;4.80;54.70;;;;;;4868694;29;20989;-86
2022/12/11 02:29:22;;;;;;;23.80;14.43;;;4.80;55.50;;;;;;4920391;29;20463;-86
2022/12/11 02:31:55;;;;;;;29.33;14.67;;;4.90;55.30;;;;;;4896854;29;20459;-86
2022/12/11 02:34:28;;;;;;;20.63;11.17;;;4.90;55.00;;;;;;4896952;29;20542;-86
2022/12/11 02:37:01;;;;;;;23.20;12.23;;;5.10;54.60;;;;;;4870341;29;20491;-87
2022/12/11 02:39:30;;;;;;;27.03;12.83;;;5.00;54.30;;;;;;4868118;29;20452;-86
2022/12/11 02:41:59;;;;;;;19.20;10.67;;;5.00;54.40;;;;;;4929991;28;20483;-86
2022/12/11 02:44:33;;;;;;;24.53;12.60;;;5.10;54.30;;;;;;4922233;29;20518;-86
2022/12/11 02:47:02;;;;;;;23.63;11.13;;;5.20;54.40;;;;;;4906662;29;20455;-86
2022/12/11 02:49:33;;;;;;;18.97;10.33;;;5.20;54.30;;;;;;4899402;29;20463;-86
2022/12/11 02:52:02;;;;;;;22.53;11.17;;;5.30;54.30;;;;;;4891828;29;20460;-86
2022/12/11 02:54:33;;;;;;;16.57;10.37;;;5.40;53.90;;;;;;4884635;29;20467;-84
2022/12/11 02:57:06;;;;;;;21.33;12.23;;;5.40;53.40;;;;;;4927878;29;20464;-85
2022/12/11 02:59:37;;;;;;;19.30;11.27;;;5.50;53.30;;;;;;4928966;29;20455;-85
2022/12/11 03:02:05;;;;;;;22.03;10.97;;;5.30;53.10;;;;;;4889154;29;20459;-86
2022/12/11 03:04:33;;;;;;;18.27;10.63;;;5.40;53.10;;;;;;4885727;29;20466;-84
2022/12/11 03:07:10;;;;;;;23.77;11.20;;;5.20;52.80;;;;;;4887429;29;20459;-86
2022/12/11 03:09:38;;;;;;;25.17;12.57;;;4.90;53.80;;;;;;4927768;29;20833;-85
2022/12/11 03:12:05;;;;;;;21.27;11.87;;;5.00;53.80;;;;;;4881690;29;20470;-86
2022/12/11 03:14:34;;;;;;;20.70;10.87;;;4.90;54.00;;;;;;4913694;29;20507;-85
2022/12/11 03:17:13;;;;;;;23.97;13.03;;;5.10;54.30;;;;;;4903224;29;20959;-86
2022/12/11 03:19:44;;;;;;;24.20;12.23;;;5.10;54.60;;;;;;4913419;29;20972;-87
2022/12/11 03:22:16;;;;;;;22.50;11.60;;;5.00;54.00;;;;;;4916211;29;20458;-86
2022/12/11 03:24:45;;;;;;;24.37;11.30;;;4.80;54.20;;;;;;4918804;29;20462;-87
2022/12/11 03:27:19;;;;;;;21.93;11.70;;;4.90;54.50;;;;;;4934007;28;20464;-85
2022/12/11 03:29:54;;;;;;;27.20;13.90;;;5.10;54.50;;;;;;4884607;29;20960;-86
2022/12/11 03:32:24;;;;;;;21.83;11.90;;;4.90;54.20;;;;;;4917689;29;20493;-86
2022/12/11 03:34:54;;;;;;;18.40;10.93;;;5.00;54.90;;;;;;4917339;29;21089;-86
2022/12/11 03:37:23;;;;;;;22.57;11.90;;;4.80;54.40;;;;;;4916537;29;20653;-85
2022/12/11 03:39:55;;;;;;;21.60;13.07;;;5.00;54.70;;;;;;4914519;29;20466;-86
2022/12/11 03:42:24;;;;;;;22.57;10.37;;;5.10;54.70;;;;;;4919417;29;21091;-86
2022/12/11 03:44:55;;;;;;;23.30;12.60;;;5.30;54.50;;;;;;4875079;29;20844;-86
2022/12/11 03:47:25;;;;;;;22.03;13.33;;;5.30;54.00;;;;;;4899994;29;20638;-87
2022/12/11 03:49:53;;;;;;;29.33;13.20;;;5.00;54.10;;;;;;4887583;29;20462;-86
2022/12/11 03:52:22;;;;;;;23.00;11.83;;;4.90;54.90;;;;;;4903456;29;20956;-86
2022/12/11 03:54:51;;;;;;;26.53;13.90;;;5.00;54.70;;;;;;4886441;29;20460;-86
2022/12/11 03:57:22;;;;;;;23.30;12.53;;;5.00;54.20;;;;;;4890030;29;20455;-86
2022/12/11 03:59:50;;;;;;;21.60;12.00;;;4.90;54.40;;;;;;4915190;29;20834;-86
2022/12/11 04:02:18;;;;;;;25.67;13.00;;;4.90;54.70;;;;;;4883863;29;20822;-85
2022/12/11 04:04:45;;;;;;;23.13;13.00;;;4.90;54.50;;;;;;4904390;29;20964;-85
2022/12/11 04:07:12;;;;;;;25.67;12.80;;;5.00;53.80;;;;;;4891768;29;20557;-86
2022/12/11 04:09:39;;;;;;;27.20;11.83;;;4.80;53.80;;;;;;4929079;29;20862;-86
2022/12/11 04:12:06;;;;;;;27.00;12.37;;;4.70;54.80;;;;;;4914804;29;20529;-86
2022/12/11 04:25:28;;;;;;;20.53;12.70;;;4.40;55.80;;;;;;4909648;29;20442;-86
2022/12/11 04:27:55;;;;;;;15.17;9.50;;;4.50;55.80;;;;;;4901962;29;20488;-85
2022/12/11 04:30:24;;;;;;;16.80;10.37;;;4.70;55.80;;;;;;4887181;29;20466;-86
2022/12/11 04:32:54;;;;;;;21.10;10.67;;;4.80;55.20;;;;;;4905405;29;20578;-84
2022/12/11 04:35:21;;;;;;;22.10;10.70;;;4.60;55.10;;;;;;4883075;29;20509;-86
2022/12/11 04:37:49;;;;;;;15.30;9.00;;;4.70;55.40;;;;;;4929841;29;20448;-85
2022/12/11 04:40:17;;;;;;;19.03;10.43;;;4.70;55.00;;;;;;4875392;29;20566;-86
2022/12/11 04:42:45;;;;;;;15.90;9.50;;;4.80;54.90;;;;;;4929783;29;20813;-86
2022/12/11 04:45:13;;;;;;;16.43;9.30;;;4.70;54.70;;;;;;4901487;29;20477;-86
2022/12/11 04:47:41;;;;;;;17.40;9.93;;;4.60;55.10;;;;;;4891356;29;20783;-86
2022/12/11 04:50:11;;;;;;;24.67;10.23;;;4.70;55.50;;;;;;4930546;29;20547;-87
2022/12/11 04:52:38;;;;;;;22.20;10.70;;;4.70;55.20;;;;;;4907025;29;20559;-85
2022/12/11 04:55:06;;;;;;;18.73;9.73;;;4.50;55.20;;;;;;4875564;29;20488;-86
2022/12/11 04:57:34;;;;;;;22.90;10.33;;;4.30;55.50;;;;;;4893524;29;20962;-87
2022/12/11 05:00:01;;;;;;;13.17;8.60;;;4.30;55.60;;;;;;4874092;29;20530;-84
2022/12/11 05:02:28;;;;;;;37.53;17.50;;;4.10;56.00;;;;;;4898218;29;20480;-86
2022/12/11 05:04:55;;;;;;;23.77;11.83;;;4.30;55.90;;;;;;4900994;29;20834;-87
2022/12/11 05:07:23;;;;;;;16.93;9.60;;;4.20;55.80;;;;;;4885444;29;20455;-85
2022/12/11 05:09:50;;;;;;;17.30;8.40;;;3.90;56.30;;;;;;4892727;29;20482;-86
2022/12/11 05:12:17;;;;;;;17.30;9.40;;;3.90;56.40;;;;;;4900282;29;20452;-86
2022/12/11 05:14:44;;;;;;;13.30;7.13;;;3.70;56.50;;;;;;4913865;29;20551;-86
2022/12/11 05:17:11;;;;;;;14.73;7.40;;;3.70;56.60;;;;;;4902567;29;20467;-86
2022/12/11 05:19:39;;;;;;;15.40;9.07;;;3.60;56.70;;;;;;4905778;29;21344;-84
2022/12/11 05:22:06;;;;;;;17.47;8.60;;;3.60;57.20;;;;;;4913743;29;20448;-85
2022/12/11 05:24:34;;;;;;;16.77;9.17;;;3.90;56.70;;;;;;4921692;29;21043;-86
2022/12/11 05:27:01;;;;;;;24.37;11.37;;;3.90;56.50;;;;;;4905797;29;21239;-85
2022/12/11 05:29:28;;;;;;;16.77;10.03;;;4.00;56.60;;;;;;4890431;29;20505;-85
2022/12/11 05:31:55;;;;;;;20.20;11.13;;;4.20;56.20;;;;;;4882967;29;20482;-86
2022/12/11 05:34:22;;;;;;;15.47;10.90;;;4.40;56.10;;;;;;4897849;29;20482;-86
2022/12/11 05:36:49;;;;;;;21.30;10.30;;;4.60;55.40;;;;;;4929045;29;20594;-86
2022/12/11 05:39:16;;;;;;;23.20;11.50;;;4.60;54.60;;;;;;4927848;29;20459;-85
2022/12/11 05:41:45;;;;;;;21.23;10.83;;;4.70;54.50;;;;;;4875214;29;20460;-87
2022/12/11 05:44:12;;;;;;;19.40;10.70;;;4.80;54.60;;;;;;4897950;29;20478;-86
2022/12/11 05:46:40;;;;;;;21.07;11.70;;;5.00;54.30;;;;;;4923906;28;20506;-86
2022/12/11 05:49:08;;;;;;;16.97;10.73;;;5.00;54.00;;;;;;4883732;29;20472;-86
2022/12/11 05:51:35;;;;;;;22.90;12.07;;;5.10;54.10;;;;;;4891067;29;20547;-86
2022/12/11 05:54:04;;;;;;;20.17;10.53;;;5.10;53.50;;;;;;4899933;29;21008;-86
2022/12/11 05:56:33;;;;;;;22.03;11.97;;;5.20;53.40;;;;;;4929340;29;20479;-86
2022/12/11 05:59:03;;;;;;;18.67;11.23;;;5.20;53.50;;;;;;4891595;29;21011;-86
2022/12/11 06:01:33;;;;;;;23.03;11.20;;;5.30;53.60;;;;;;4900703;29;20515;-86
2022/12/11 06:04:01;;;;;;;24.30;11.80;;;5.30;53.70;;;;;;4867799;29;20526;-86
2022/12/11 06:06:28;;;;;;;27.07;11.60;;;5.30;54.00;;;;;;4899797;29;20916;-86
2022/12/11 06:08:57;;;;;;;21.33;10.90;;;5.30;53.80;;;;;;4892429;29;20481;-86
2022/12/11 06:11:25;;;;;;;21.33;11.53;;;5.30;53.70;;;;;;4905297;29;21791;-86
2022/12/11 06:13:53;;;;;;;27.27;14.17;;;5.30;53.70;;;;;;4927368;29;20860;-85
2022/12/11 06:16:22;;;;;;;23.90;11.77;;;5.30;53.70;;;;;;4868314;29;20825;-83
2022/12/11 06:18:49;;;;;;;23.70;11.93;;;5.20;53.90;;;;;;4912392;29;20468;-85
2022/12/11 06:21:17;;;;;;;22.73;11.87;;;5.00;54.30;;;;;;4899645;29;20455;-85
2022/12/11 06:23:46;;;;;;;23.00;11.80;;;4.80;54.20;;;;;;4903817;29;20479;-86
2022/12/11 06:26:15;;;;;;;25.90;14.20;;;4.60;54.90;;;;;;4922418;29;20777;-87
2022/12/11 06:28:42;;;;;;;29.90;14.37;;;4.60;55.10;;;;;;4914162;29;20487;-85
2022/12/11 06:31:09;;;;;;;18.83;12.10;;;4.60;54.90;;;;;;4888679;29;20470;-87
2022/12/11 06:33:37;;;;;;;30.63;12.47;;;4.50;55.10;;;;;;4890522;29;20577;-86
2022/12/11 06:36:06;;;;;;;32.63;14.40;;;4.60;55.30;;;;;;4913088;29;20463;-86
2022/12/11 06:38:33;;;;;;;25.97;13.80;;;4.80;55.20;;;;;;4898528;29;20451;-86
2022/12/11 06:41:03;;;;;;;29.43;14.40;;;4.60;55.00;;;;;;4899173;29;21007;-87
2022/12/11 06:43:30;;;;;;;28.33;13.57;;;4.70;55.30;;;;;;4882164;29;20568;-86
2022/12/11 06:45:58;;;;;;;28.13;15.33;;;4.90;55.40;;;;;;4920262;29;20570;-86
2022/12/11 06:48:25;;;;;;;27.40;14.40;;;5.00;55.20;;;;;;4896648;29;20467;-86
2022/12/11 06:50:53;;;;;;;27.47;16.00;;;5.00;54.60;;;;;;4898773;29;20957;-86
2022/12/11 06:53:20;;;;;;;29.80;15.23;;;5.10;54.70;;;;;;4901969;29;20480;-86
2022/12/11 06:55:48;;;;;;;24.40;12.70;;;5.10;54.40;;;;;;4915769;29;20447;-86
2022/12/11 06:58:16;;;;;;;28.87;13.33;;;4.90;54.50;;;;;;4888239;29;20874;-86
2022/12/11 07:00:43;;;;;;;36.70;15.20;;;4.80;54.80;;;;;;4873265;29;20455;-86
2022/12/11 07:03:12;;;;;;;24.53;13.47;;;4.40;55.10;;;;;;4900074;29;20508;-87
2022/12/11 07:05:39;;;;;;;25.27;15.60;;;4.20;55.90;;;;;;4905461;29;20459;-86
2022/12/11 07:08:08;;;;;;;33.90;20.00;;;4.30;56.40;;;;;;4888753;29;21138;-86
2022/12/11 07:10:34;;;;;;;38.37;19.70;;;4.50;56.10;;;;;;4915438;29;20933;-86
2022/12/11 07:13:01;;;;;;;37.47;14.90;;;4.80;55.90;;;;;;4927429;29;21068;-86
2022/12/11 07:15:28;;;;;;;23.87;12.10;;;4.80;55.20;;;;;;4882796;29;20463;-86
2022/12/11 07:17:55;;;;;;;27.20;15.10;;;4.70;54.50;;;;;;4903433;29;20462;-86
2022/12/11 07:20:22;;;;;;;31.23;12.77;;;4.60;54.60;;;;;;4896130;29;20468;-86
2022/12/11 07:22:50;;;;;;;23.83;12.23;;;4.70;55.00;;;;;;4881661;29;20473;-85
2022/12/11 07:25:18;;;;;;;22.80;11.30;;;4.80;55.30;;;;;;4904664;29;20915;-86
2022/12/11 07:27:45;;;;;;;28.17;12.90;;;4.80;54.60;;;;;;4889800;29;20989;-85
2022/12/11 07:30:14;;;;;;;24.87;13.77;;;4.80;54.40;;;;;;4894513;29;20480;-86
2022/12/11 07:32:41;;;;;;;21.23;10.73;;;4.70;54.50;;;;;;4882794;29;20512;-86
2022/12/11 07:35:09;;;;;;;27.87;12.30;;;4.80;54.50;;;;;;4918672;29;20471;-86
2022/12/11 07:37:37;;;;;;;27.90;12.70;;;4.80;54.20;;;;;;4890626;29;20953;-86
2022/12/11 07:40:04;;;;;;;28.50;12.10;;;4.90;54.20;;;;;;4889835;29;20478;-86
2022/12/11 07:42:33;;;;;;;22.57;10.50;;;5.00;53.90;;;;;;4926876;29;20526;-86
2022/12/11 07:44:59;;;;;;;29.13;11.27;;;5.00;53.40;;;;;;4873721;29;20450;-86
2022/12/11 07:47:26;;;;;;;22.90;11.10;;;5.10;53.80;;;;;;4873261;29;21039;-86
2022/12/11 07:49:53;;;;;;;32.30;14.73;;;5.10;53.40;;;;;;4914129;29;20902;-87
2022/12/11 07:52:20;;;;;;;31.63;13.50;;;4.80;53.20;;;;;;4898639;29;20983;-85
2022/12/11 07:54:47;;;;;;;24.50;11.73;;;4.70;53.60;;;;;;4905657;29;20534;-86
2022/12/11 07:57:14;;;;;;;13.63;7.60;;;4.50;53.40;;;;;;4886163;29;20541;-86
2022/12/11 07:59:43;;;;;;;19.83;9.10;;;4.70;53.50;;;;;;4914978;29;20480;-86
2022/12/11 08:02:11;;;;;;;22.77;9.63;;;4.80;53.40;;;;;;4881374;29;20460;-86
2022/12/11 08:04:38;;;;;;;14.67;8.60;;;4.90;53.20;;;;;;4881455;29;20498;-86
2022/12/11 08:07:06;;;;;;;13.70;8.50;;;4.80;53.10;;;;;;4896485;29;20876;-86
2022/12/11 08:09:33;;;;;;;20.30;9.00;;;4.80;53.30;;;;;;4906812;29;20851;-86
2022/12/11 08:12:00;;;;;;;20.93;10.27;;;4.90;53.20;;;;;;4881243;29;20824;-86
2022/12/11 08:14:27;;;;;;;20.43;7.93;;;4.80;53.00;;;;;;4884574;29;20513;-86
2022/12/11 08:16:56;;;;;;;11.80;6.33;;;4.80;53.00;;;;;;4917224;29;20541;-86
2022/12/11 08:19:24;;;;;;;13.83;8.50;;;4.70;52.80;;;;;;4885630;29;20456;-86
2022/12/11 08:21:51;;;;;;;13.83;7.10;;;4.50;52.80;;;;;;4908370;29;20462;-84
2022/12/11 08:24:19;;;;;;;15.03;8.30;;;4.60;53.40;;;;;;4892574;29;20487;-86
2022/12/11 08:26:47;;;;;;;18.63;9.30;;;4.30;52.50;;;;;;4915869;29;20757;-84
2022/12/11 08:29:14;;;;;;;13.43;7.63;;;4.40;53.90;;;;;;4906387;29;20482;-85
2022/12/11 08:31:42;;;;;;;12.67;7.23;;;4.60;54.10;;;;;;4900927;29;20466;-86
2022/12/11 08:34:12;;;;;;;16.73;7.83;;;4.80;53.70;;;;;;4906681;29;20490;-85
2022/12/11 08:36:40;;;;;;;13.10;8.27;;;5.00;53.70;;;;;;4879824;29;20543;-86
2022/12/11 08:39:07;;;;;;;22.37;8.80;;;4.60;52.40;;;;;;4901519;29;20451;-86
2022/12/11 08:41:34;;;;;;;19.27;8.93;;;4.50;53.40;;;;;;4908365;29;20578;-85
2022/12/11 08:44:01;;;;;;;12.93;9.37;;;4.70;53.70;;;;;;4887771;29;20843;-85
2022/12/11 08:46:30;;;;;;;14.40;7.70;;;4.80;53.30;;;;;;4883904;29;20443;-85
2022/12/11 08:48:58;;;;;;;14.60;8.10;;;4.60;52.30;;;;;;4903227;29;20545;-84
2022/12/11 08:51:28;;;;;;;11.10;5.90;;;4.40;52.90;;;;;;4917895;29;20470;-86
2022/12/11 08:53:56;;;;;;;16.13;8.13;;;4.30;52.90;;;;;;4883913;29;20481;-86
2022/12/11 08:56:24;;;;;;;16.43;6.20;;;4.20;53.60;;;;;;4870361;29;20471;-86
2022/12/11 08:58:52;;;;;;;11.80;6.80;;;4.50;53.90;;;;;;4915525;29;20540;-86
2022/12/11 09:01:21;;;;;;;14.67;7.33;;;4.40;53.50;;;;;;4931560;29;20448;-86
2022/12/11 09:03:48;;;;;;;16.73;9.77;;;4.50;53.40;;;;;;4915623;29;20471;-86
2022/12/11 09:06:18;;;;;;;15.30;8.47;;;4.80;53.70;;;;;;4904962;29;20455;-86
2022/12/11 09:08:48;;;;;;;17.37;9.90;;;5.00;53.80;;;;;;4899511;29;20456;-84
2022/12/11 09:11:18;;;;;;;14.67;7.27;;;5.20;53.20;;;;;;4906425;29;20543;-86
2022/12/11 09:13:45;;;;;;;15.90;8.80;;;5.20;52.50;;;;;;4903173;29;21075;-85
2022/12/11 09:16:14;;;;;;;19.70;9.63;;;4.70;53.40;;;;;;4901469;29;20831;-85
2022/12/11 09:18:41;;;;;;;94.67;47.13;;;4.60;53.60;;;;;;4899576;29;20467;-86
2022/12/11 09:21:13;;;;;;;27.67;14.00;;;4.70;53.80;;;;;;4889770;29;20479;-86
2022/12/11 09:23:40;;;;;;;27.20;13.80;;;4.70;53.40;;;;;;4902348;29;20479;-86
2022/12/11 09:26:10;;;;;;;21.20;11.90;;;4.90;54.00;;;;;;4885335;29;20997;-86
2022/12/11 09:28:38;;;;;;;20.90;11.27;;;4.80;53.70;;;;;;4900589;29;20538;-85
2022/12/11 09:31:09;;;;;;;25.70;14.23;;;5.00;53.80;;;;;;4903015;29;20506;-86
2022/12/11 09:33:36;;;;;;;23.27;12.23;;;5.20;53.60;;;;;;4927968;28;20480;-86
2022/12/11 09:36:05;;;;;;;17.73;8.87;;;5.20;52.90;;;;;;4915024;29;20474;-86
2022/12/11 09:38:33;;;;;;;28.37;18.20;;;5.20;52.60;;;;;;4921757;29;20470;-85
2022/12/11 09:41:00;;;;;;;27.07;14.80;;;5.00;53.00;;;;;;4884736;29;20447;-85
2022/12/11 09:43:38;;;;;;;25.83;9.70;;;5.10;52.90;;;;;;4885724;29;20490;-86
2022/12/11 09:46:10;;;;;;;22.60;9.20;;;5.10;52.60;;;;;;4922129;29;20494;-86
2022/12/11 09:48:39;;;;;;;15.47;8.40;;;4.80;53.00;;;;;;4875022;29;20518;-86
2022/12/11 09:51:16;;;;;;;15.57;9.60;;;4.60;53.40;;;;;;4914908;29;20602;-86
2022/12/11 09:53:43;;;;;;;14.60;8.97;;;4.70;54.00;;;;;;4915017;29;20510;-86
2022/12/11 09:56:17;;;;;;;19.17;9.80;;;4.70;53.60;;;;;;4890105;29;20459;-85
2022/12/11 09:58:59;;;;;;;16.40;9.77;;;4.40;53.70;;;;;;4875603;29;20806;-86
2022/12/11 10:01:37;;;;;;;17.10;8.93;;;4.10;54.90;;;;;;4890061;29;20468;-86
2022/12/11 10:04:22;;;;;;;13.97;10.20;;;3.90;54.50;;;;;;4874561;29;20506;-86
2022/12/11 10:06:57;;;;;;;19.17;10.07;;;4.00;55.10;;;;;;4900927;29;21046;-86
2022/12/11 10:09:36;;;;;;;21.07;11.27;;;4.20;55.10;;;;;;4928406;29;20478;-87
2022/12/11 10:12:16;;;;;;;13.17;8.47;;;4.40;54.60;;;;;;4880281;29;20835;-83
2022/12/11 10:14:59;;;;;;;17.93;8.83;;;4.40;53.70;;;;;;4922956;29;20451;-84
2022/12/11 10:17:30;;;;;;;18.43;9.60;;;4.30;53.60;;;;;;4928880;29;20463;-86
2022/12/11 10:20:03;;;;;;;18.03;9.67;;;4.20;54.40;;;;;;4898532;29;20459;-83
2022/12/11 10:22:32;;;;;;;24.17;12.33;;;4.30;54.50;;;;;;4916253;29;20887;-85
2022/12/11 10:25:01;;;;;;;20.03;9.90;;;4.40;54.10;;;;;;4896450;29;20563;-85
2022/12/11 10:27:31;;;;;;;21.37;10.30;;;4.30;54.00;;;;;;4896201;29;20490;-86
2022/12/11 10:30:13;;;;;;;17.00;9.00;;;4.30;53.80;;;;;;4901129;29;20526;-83
2022/12/11 10:32:49;;;;;;;14.10;8.40;;;4.10;53.60;;;;;;4909053;29;21103;-86
2022/12/11 10:35:24;;;;;;;23.30;11.50;;;4.20;54.10;;;;;;4926441;29;20804;-86
2022/12/11 10:37:55;;;;;;;15.93;9.37;;;4.20;53.80;;;;;;4880681;29;20460;-84
2022/12/11 10:40:24;;;;;;;17.90;10.23;;;3.90;54.40;;;;;;4898433;29;20807;-86
2022/12/11 10:42:54;;;;;;;12.07;8.10;;;3.80;55.20;;;;;;4873087;29;20524;-85
2022/12/11 10:45:23;;;;;;;18.97;8.87;;;4.00;55.40;;;;;;4871719;29;20561;-86
2022/12/11 10:47:50;;;;;;;14.77;7.10;;;4.10;54.20;;;;;;4912599;29;20836;-86
2022/12/11 10:50:25;;;;;;;13.93;6.90;;;4.10;54.00;;;;;;4904144;29;20486;-86
2022/12/11 10:52:53;;;;;;;17.40;8.97;;;4.10;53.70;;;;;;4928507;28;20973;-85
2022/12/11 10:55:24;;;;;;;15.40;8.73;;;4.10;53.40;;;;;;4868016;29;20485;-86
2022/12/11 10:57:58;;;;;;;13.17;7.77;;;4.30;53.40;;;;;;4904120;29;20447;-85
2022/12/11 11:00:34;;;;;;;17.03;8.87;;;4.30;53.50;;;;;;4888873;29;20476;-85
2022/12/11 11:03:02;;;;;;;11.67;7.97;;;4.20;53.20;;;;;;4890023;29;20471;-85
2022/12/11 11:05:33;;;;;;;15.53;6.73;;;4.30;53.70;;;;;;4913671;29;20979;-86
2022/12/11 11:08:14;;;;;;;16.17;8.17;;;4.20;52.80;;;;;;4896930;29;20511;-86
2022/12/11 11:10:53;;;;;;;14.20;7.77;;;4.20;53.90;;;;;;4887041;29;20478;-85
2022/12/11 11:13:22;;;;;;;16.87;9.23;;;4.40;53.50;;;;;;4872661;29;20482;-86
2022/12/11 11:15:58;;;;;;;15.27;8.07;;;4.60;53.20;;;;;;4891307;29;20456;-86
2022/12/11 11:18:27;;;;;;;15.67;10.57;;;4.80;53.40;;;;;;4903295;29;20479;-83
2022/12/11 11:20:55;;;;;;;16.87;10.60;;;4.80;52.80;;;;;;4883793;29;20451;-85
2022/12/11 11:23:22;;;;;;;14.23;8.27;;;4.40;53.80;;;;;;4910521;29;20541;-86
2022/12/11 11:25:51;;;;;;;15.33;6.37;;;4.30;53.90;;;;;;4921232;29;20463;-86
2022/12/11 11:28:21;;;;;;;14.43;8.13;;;4.40;53.20;;;;;;4909852;29;20984;-86
2022/12/11 11:31:00;;;;;;;17.67;11.13;;;4.70;52.80;;;;;;4916080;29;20463;-85
2022/12/11 11:33:28;;;;;;;16.10;9.40;;;4.90;52.40;;;;;;4906865;29;21007;-86
2022/12/11 11:35:57;;;;;;;113.13;39.97;;;4.90;52.80;;;;;;4890701;29;20969;-86
2022/12/11 11:38:27;;;;;;;29.90;15.73;;;5.00;52.90;;;;;;4887886;29;20661;-85
2022/12/11 11:41:02;;;;;;;21.57;12.30;;;5.00;52.40;;;;;;4898647;29;20448;-85
2022/12/11 11:43:37;;;;;;;22.10;12.00;;;4.80;52.90;;;;;;4905934;29;20553;-87
2022/12/11 11:46:12;;;;;;;28.40;15.03;;;4.70;52.70;;;;;;4877498;29;20469;-86
2022/12/11 11:48:48;;;;;;;16.80;10.60;;;5.00;52.70;;;;;;4916547;29;20451;-85
2022/12/11 11:51:21;;;;;;;20.00;11.97;;;5.20;51.50;;;;;;4892040;29;20482;-86
2022/12/11 11:53:51;;;;;;;16.60;10.00;;;5.00;52.20;;;;;;4887992;29;20467;-86
2022/12/11 11:56:21;;;;;;;13.40;7.40;;;4.90;52.40;;;;;;4887524;29;20473;-86
2022/12/11 11:58:58;;;;;;;15.07;9.53;;;4.80;52.00;;;;;;4903748;29;20533;-86
2022/12/11 12:01:27;;;;;;;17.70;9.17;;;4.80;52.50;;;;;;4914017;29;20450;-85
2022/12/11 12:03:54;;;;;;;20.77;12.70;;;5.10;52.10;;;;;;4932337;29;20506;-85
2022/12/11 12:06:33;;;;;;;19.20;8.10;;;5.00;51.80;;;;;;4906590;29;20463;-86
2022/12/11 12:09:08;;;;;;;19.60;9.20;;;5.10;51.80;;;;;;4908494;29;20491;-86
2022/12/11 12:11:39;;;;;;;16.60;7.87;;;5.00;52.10;;;;;;4875838;29;20470;-86
2022/12/11 12:14:14;;;;;;;15.93;8.63;;;4.90;52.20;;;;;;4931844;29;20590;-86
2022/12/11 12:16:48;;;;;;;14.00;8.30;;;4.90;52.50;;;;;;4917444;29;20463;-86
2022/12/11 12:19:26;;;;;;;15.27;7.40;;;5.00;52.40;;;;;;4915308;29;20549;-85
2022/12/11 12:21:53;;;;;;;15.43;8.23;;;4.70;52.60;;;;;;4916865;29;20475;-83
2022/12/11 12:24:29;;;;;;;20.27;9.60;;;4.60;52.90;;;;;;4914790;29;20479;-85
2022/12/11 12:27:01;;;;;;;347.33;113.43;;;4.50;53.60;;;;;;4885647;29;20475;-84
2022/12/11 12:29:42;;;;;;;17.80;11.37;;;4.80;53.80;;;;;;4906811;29;20458;-85
2022/12/11 12:32:20;;;;;;;17.33;10.20;;;4.90;53.70;;;;;;4899733;29;20495;-85
2022/12/11 12:35:00;;;;;;;28.00;18.60;;;5.00;52.90;;;;;;4916299;29;20466;-86
2022/12/11 12:37:44;;;;;;;17.40;9.07;;;5.00;53.10;;;;;;4922559;29;20450;-85
2022/12/11 12:40:20;;;;;;;15.50;10.40;;;5.00;53.00;;;;;;4896268;29;20523;-85
2022/12/11 12:42:55;;;;;;;23.50;10.07;;;5.20;53.40;;;;;;4917650;29;20479;-85
2022/12/11 12:45:28;;;;;;;18.83;10.90;;;5.00;52.60;;;;;;4932737;28;20467;-85
2022/12/11 12:47:56;;;;;;;20.80;10.80;;;5.00;52.90;;;;;;4908057;29;20456;-85
2022/12/11 12:50:26;;;;;;;23.07;12.27;;;5.20;52.70;;;;;;4890339;29;20478;-84
2022/12/11 12:52:55;;;;;;;16.80;10.47;;;5.30;52.90;;;;;;4891511;29;20877;-83
2022/12/11 12:55:24;;;;;;;21.93;11.73;;;5.20;53.00;;;;;;4891433;29;20456;-85
2022/12/11 12:57:54;;;;;;;17.80;11.47;;;5.00;53.30;;;;;;4932519;29;21262;-85
2022/12/11 13:00:34;;;;;;;22.43;13.10;;;5.10;53.60;;;;;;4913286;29;20463;-85
2022/12/11 13:03:14;;;;;;;22.70;12.90;;;5.20;53.40;;;;;;4872853;29;21232;-85
2022/12/11 13:05:43;;;;;;;27.00;12.90;;;5.10;53.00;;;;;;4917747;29;20455;-86